sensor_id;sensor_type;location;lat;lon;timestamp;temperature;humidity
12911;DHT22;6523;49.758;6.120;2023-06-14T00:00:38;13.10;99.90
12911;DHT22;6523;49.758;6.120;2023-06-14T00:03:07;13.10;99.90
12911;DHT22;6523;49.758;6.120;2023-06-14T00:05:37;13.20;99.90
12911;DHT22;6523;49.758;6.120;2023-06-14T00:08:09;13.10;99.90
12911;DHT22;6523;49.758;6.120;2023-06-14T00:10:38;13.00;99.90
12911;DHT22;6523;49.758;6.120;2023-06-14T00:13:06;12.90;99.90
12911;DHT22;6523;49.758;6.120;2023-06-14T00:15:35;12.80;99.90
12911;DHT22;6523;49.758;6.120;2023-06-14T00:18:01;12.70;99.90
12911;DHT22;6523;49.758;6.120;2023-06-14T00:20:28;12.70;99.90
12911;DHT22;6523;49.758;6.120;2023-06-14T00:22:54;12.60;99.90
12911;DHT22;6523;49.758;6.120;2023-06-14T00:25:22;12.50;99.90
12911;DHT22;6523;49.758;6.120;2023-06-14T00:27:49;12.40;99.90
12911;DHT22;6523;49.758;6.120;2023-06-14T00:30:14;12.30;99.90
12911;DHT22;6523;49.758;6.120;2023-06-14T00:32:40;12.30;99.90
12911;DHT22;6523;49.758;6.120;2023-06-14T00:35:08;12.30;99.90
12911;DHT22;6523;49.758;6.120;2023-06-14T00:37:34;12.20;99.90
12911;DHT22;6523;49.758;6.120;2023-06-14T00:39:59;12.10;99.90
12911;DHT22;6523;49.758;6.120;2023-06-14T00:42:26;12.00;99.90
12911;DHT22;6523;49.758;6.120;2023-06-14T00:44:52;12.00;99.90
12911;DHT22;6523;49.758;6.120;2023-06-14T00:47:17;12.00;99.90
12911;DHT22;6523;49.758;6.120;2023-06-14T00:49:48;12.10;99.90
12911;DHT22;6523;49.758;6.120;2023-06-14T00:52:15;12.00;99.90
12911;DHT22;6523;49.758;6.120;2023-06-14T00:54:42;11.90;99.90
12911;DHT22;6523;49.758;6.120;2023-06-14T00:57:08;11.80;99.90
12911;DHT22;6523;49.758;6.120;2023-06-14T00:59:42;11.80;99.90
12911;DHT22;6523;49.758;6.120;2023-06-14T01:02:08;11.70;99.90
12911;DHT22;6523;49.758;6.120;2023-06-14T01:04:33;11.70;99.90
12911;DHT22;6523;49.758;6.120;2023-06-14T01:07:10;11.60;99.90
12911;DHT22;6523;49.758;6.120;2023-06-14T01:10:01;11.60;99.90
12911;DHT22;6523;49.758;6.120;2023-06-14T01:15:23;11.80;99.90
12911;DHT22;6523;49.758;6.120;2023-06-14T01:17:50;11.70;99.90
12911;DHT22;6523;49.758;6.120;2023-06-14T01:20:17;11.60;99.90
12911;DHT22;6523;49.758;6.120;2023-06-14T01:22:52;11.60;99.90
12911;DHT22;6523;49.758;6.120;2023-06-14T01:25:21;11.60;99.90
12911;DHT22;6523;49.758;6.120;2023-06-14T01:30:18;11.50;99.90
12911;DHT22;6523;49.758;6.120;2023-06-14T01:32:45;11.40;99.90
12911;DHT22;6523;49.758;6.120;2023-06-14T01:35:11;11.30;99.90
12911;DHT22;6523;49.758;6.120;2023-06-14T01:37:37;11.20;99.90
12911;DHT22;6523;49.758;6.120;2023-06-14T01:40:06;11.40;99.90
12911;DHT22;6523;49.758;6.120;2023-06-14T01:42:34;11.20;99.90
12911;DHT22;6523;49.758;6.120;2023-06-14T01:45:02;11.30;99.90
12911;DHT22;6523;49.758;6.120;2023-06-14T01:47:29;11.30;99.90
12911;DHT22;6523;49.758;6.120;2023-06-14T01:49:55;11.30;99.90
12911;DHT22;6523;49.758;6.120;2023-06-14T01:52:21;11.30;99.90
12911;DHT22;6523;49.758;6.120;2023-06-14T01:54:47;11.10;99.90
12911;DHT22;6523;49.758;6.120;2023-06-14T01:57:15;11.10;99.90
12911;DHT22;6523;49.758;6.120;2023-06-14T01:59:40;11.00;99.90
12911;DHT22;6523;49.758;6.120;2023-06-14T02:02:06;11.10;99.90
12911;DHT22;6523;49.758;6.120;2023-06-14T02:04:32;11.00;99.90
12911;DHT22;6523;49.758;6.120;2023-06-14T02:06:57;10.90;99.90
12911;DHT22;6523;49.758;6.120;2023-06-14T02:09:23;11.00;99.90
12911;DHT22;6523;49.758;6.120;2023-06-14T02:11:49;10.90;99.90
12911;DHT22;6523;49.758;6.120;2023-06-14T02:14:14;10.90;99.90
12911;DHT22;6523;49.758;6.120;2023-06-14T02:16:42;10.80;99.90
12911;DHT22;6523;49.758;6.120;2023-06-14T02:19:15;10.70;99.90
12911;DHT22;6523;49.758;6.120;2023-06-14T02:21:41;10.70;99.90
12911;DHT22;6523;49.758;6.120;2023-06-14T02:24:07;10.50;99.90
12911;DHT22;6523;49.758;6.120;2023-06-14T02:26:33;10.50;99.90
12911;DHT22;6523;49.758;6.120;2023-06-14T02:28:58;10.70;99.90
12911;DHT22;6523;49.758;6.120;2023-06-14T02:31:24;10.60;99.90
12911;DHT22;6523;49.758;6.120;2023-06-14T02:33:50;10.60;99.90
12911;DHT22;6523;49.758;6.120;2023-06-14T02:36:16;10.50;99.90
12911;DHT22;6523;49.758;6.120;2023-06-14T02:38:41;10.40;99.90
12911;DHT22;6523;49.758;6.120;2023-06-14T02:41:07;10.30;99.90
12911;DHT22;6523;49.758;6.120;2023-06-14T02:43:32;10.50;99.90
12911;DHT22;6523;49.758;6.120;2023-06-14T02:45:58;10.50;99.90
12911;DHT22;6523;49.758;6.120;2023-06-14T02:48:24;10.50;99.90
12911;DHT22;6523;49.758;6.120;2023-06-14T02:50:49;10.60;99.90
12911;DHT22;6523;49.758;6.120;2023-06-14T02:53:15;10.50;99.90
12911;DHT22;6523;49.758;6.120;2023-06-14T02:55:41;10.50;99.90
12911;DHT22;6523;49.758;6.120;2023-06-14T02:58:07;10.60;99.90
12911;DHT22;6523;49.758;6.120;2023-06-14T03:00:32;10.50;99.90
12911;DHT22;6523;49.758;6.120;2023-06-14T03:02:58;10.40;99.90
12911;DHT22;6523;49.758;6.120;2023-06-14T03:05:27;10.40;99.90
12911;DHT22;6523;49.758;6.120;2023-06-14T03:07:53;10.40;99.90
12911;DHT22;6523;49.758;6.120;2023-06-14T03:10:19;10.40;99.90
12911;DHT22;6523;49.758;6.120;2023-06-14T03:12:45;10.40;99.90
12911;DHT22;6523;49.758;6.120;2023-06-14T03:15:10;10.20;99.90
12911;DHT22;6523;49.758;6.120;2023-06-14T03:17:38;10.20;99.90
12911;DHT22;6523;49.758;6.120;2023-06-14T03:20:04;10.10;99.90
12911;DHT22;6523;49.758;6.120;2023-06-14T03:22:30;10.10;99.90
12911;DHT22;6523;49.758;6.120;2023-06-14T03:24:57;10.00;99.90
12911;DHT22;6523;49.758;6.120;2023-06-14T03:27:24;10.00;99.90
12911;DHT22;6523;49.758;6.120;2023-06-14T03:29:51;10.00;99.90
12911;DHT22;6523;49.758;6.120;2023-06-14T03:32:16;9.90;99.90
12911;DHT22;6523;49.758;6.120;2023-06-14T03:34:42;10.00;99.90
12911;DHT22;6523;49.758;6.120;2023-06-14T03:37:08;10.00;99.90
12911;DHT22;6523;49.758;6.120;2023-06-14T03:39:33;10.00;99.90
12911;DHT22;6523;49.758;6.120;2023-06-14T03:41:59;10.10;99.90
12911;DHT22;6523;49.758;6.120;2023-06-14T03:44:26;10.00;99.90
12911;DHT22;6523;49.758;6.120;2023-06-14T03:46:52;10.00;99.90
12911;DHT22;6523;49.758;6.120;2023-06-14T03:49:17;10.00;99.90
12911;DHT22;6523;49.758;6.120;2023-06-14T03:51:43;10.20;99.90
12911;DHT22;6523;49.758;6.120;2023-06-14T03:54:08;10.10;99.90
12911;DHT22;6523;49.758;6.120;2023-06-14T03:56:34;10.10;99.90
12911;DHT22;6523;49.758;6.120;2023-06-14T03:59:00;10.10;99.90
12911;DHT22;6523;49.758;6.120;2023-06-14T04:01:25;10.10;99.90
12911;DHT22;6523;49.758;6.120;2023-06-14T04:03:55;10.10;99.90
12911;DHT22;6523;49.758;6.120;2023-06-14T04:06:21;10.20;99.90
12911;DHT22;6523;49.758;6.120;2023-06-14T04:08:47;10.30;99.90
12911;DHT22;6523;49.758;6.120;2023-06-14T04:11:15;10.20;99.90
12911;DHT22;6523;49.758;6.120;2023-06-14T04:13:40;10.20;99.90
12911;DHT22;6523;49.758;6.120;2023-06-14T04:16:06;10.30;99.90
12911;DHT22;6523;49.758;6.120;2023-06-14T04:18:31;10.20;99.90
12911;DHT22;6523;49.758;6.120;2023-06-14T04:20:57;10.20;99.90
12911;DHT22;6523;49.758;6.120;2023-06-14T04:23:22;10.30;99.90
12911;DHT22;6523;49.758;6.120;2023-06-14T04:25:48;10.30;99.90
12911;DHT22;6523;49.758;6.120;2023-06-14T04:28:14;10.30;99.90
12911;DHT22;6523;49.758;6.120;2023-06-14T04:30:44;10.30;99.90
12911;DHT22;6523;49.758;6.120;2023-06-14T04:33:10;10.40;99.90
12911;DHT22;6523;49.758;6.120;2023-06-14T04:35:36;10.60;99.90
12911;DHT22;6523;49.758;6.120;2023-06-14T04:38:03;10.80;99.90
12911;DHT22;6523;49.758;6.120;2023-06-14T04:40:31;10.80;99.90
12911;DHT22;6523;49.758;6.120;2023-06-14T04:42:56;10.70;99.90
12911;DHT22;6523;49.758;6.120;2023-06-14T04:45:23;10.70;99.90
12911;DHT22;6523;49.758;6.120;2023-06-14T04:47:49;11.00;99.90
12911;DHT22;6523;49.758;6.120;2023-06-14T04:50:16;11.10;99.90
12911;DHT22;6523;49.758;6.120;2023-06-14T04:52:41;11.30;99.90
12911;DHT22;6523;49.758;6.120;2023-06-14T04:55:08;11.20;99.90
12911;DHT22;6523;49.758;6.120;2023-06-14T04:57:33;11.20;99.90
12911;DHT22;6523;49.758;6.120;2023-06-14T05:00:00;11.30;99.90
12911;DHT22;6523;49.758;6.120;2023-06-14T05:02:26;11.30;99.90
12911;DHT22;6523;49.758;6.120;2023-06-14T05:04:53;11.50;99.90
12911;DHT22;6523;49.758;6.120;2023-06-14T05:07:18;11.60;99.90
12911;DHT22;6523;49.758;6.120;2023-06-14T05:09:45;11.70;99.90
12911;DHT22;6523;49.758;6.120;2023-06-14T05:12:11;11.80;99.90
12911;DHT22;6523;49.758;6.120;2023-06-14T05:14:37;11.80;99.90
12911;DHT22;6523;49.758;6.120;2023-06-14T05:17:02;11.80;99.90
12911;DHT22;6523;49.758;6.120;2023-06-14T05:19:28;12.00;99.90
12911;DHT22;6523;49.758;6.120;2023-06-14T05:21:54;12.20;99.90
12911;DHT22;6523;49.758;6.120;2023-06-14T05:24:20;12.30;99.90
12911;DHT22;6523;49.758;6.120;2023-06-14T05:26:46;12.40;99.90
12911;DHT22;6523;49.758;6.120;2023-06-14T05:29:12;12.50;99.90
12911;DHT22;6523;49.758;6.120;2023-06-14T05:31:37;12.50;99.90
12911;DHT22;6523;49.758;6.120;2023-06-14T05:34:03;12.50;99.90
12911;DHT22;6523;49.758;6.120;2023-06-14T05:36:29;12.70;99.90
12911;DHT22;6523;49.758;6.120;2023-06-14T05:38:55;12.80;99.90
12911;DHT22;6523;49.758;6.120;2023-06-14T05:41:28;12.90;99.90
12911;DHT22;6523;49.758;6.120;2023-06-14T05:43:55;13.00;99.90
12911;DHT22;6523;49.758;6.120;2023-06-14T05:46:21;13.00;99.90
12911;DHT22;6523;49.758;6.120;2023-06-14T05:48:50;13.10;99.90
12911;DHT22;6523;49.758;6.120;2023-06-14T05:51:16;13.20;99.90
12911;DHT22;6523;49.758;6.120;2023-06-14T05:53:47;13.30;99.90
12911;DHT22;6523;49.758;6.120;2023-06-14T05:56:16;13.40;99.90
12911;DHT22;6523;49.758;6.120;2023-06-14T05:58:43;13.40;99.90
12911;DHT22;6523;49.758;6.120;2023-06-14T06:01:09;13.60;99.90
12911;DHT22;6523;49.758;6.120;2023-06-14T06:03:34;13.70;99.90
12911;DHT22;6523;49.758;6.120;2023-06-14T06:06:00;13.80;99.90
12911;DHT22;6523;49.758;6.120;2023-06-14T06:08:26;13.90;99.90
12911;DHT22;6523;49.758;6.120;2023-06-14T06:10:52;14.00;99.90
12911;DHT22;6523;49.758;6.120;2023-06-14T06:13:19;14.00;99.90
12911;DHT22;6523;49.758;6.120;2023-06-14T06:15:44;14.10;99.90
12911;DHT22;6523;49.758;6.120;2023-06-14T06:18:10;14.10;99.90
12911;DHT22;6523;49.758;6.120;2023-06-14T06:20:35;14.30;99.90
12911;DHT22;6523;49.758;6.120;2023-06-14T06:23:02;14.50;99.90
12911;DHT22;6523;49.758;6.120;2023-06-14T06:25:28;14.60;99.90
12911;DHT22;6523;49.758;6.120;2023-06-14T06:27:54;14.80;99.90
12911;DHT22;6523;49.758;6.120;2023-06-14T06:30:21;15.00;99.90
12911;DHT22;6523;49.758;6.120;2023-06-14T06:32:47;15.20;99.90
12911;DHT22;6523;49.758;6.120;2023-06-14T06:35:13;15.40;99.90
12911;DHT22;6523;49.758;6.120;2023-06-14T06:37:39;15.50;99.90
12911;DHT22;6523;49.758;6.120;2023-06-14T06:40:05;15.50;99.90
12911;DHT22;6523;49.758;6.120;2023-06-14T06:42:32;15.70;99.90
12911;DHT22;6523;49.758;6.120;2023-06-14T06:44:57;16.20;99.90
12911;DHT22;6523;49.758;6.120;2023-06-14T06:47:23;16.40;99.90
12911;DHT22;6523;49.758;6.120;2023-06-14T06:49:49;16.70;99.90
12911;DHT22;6523;49.758;6.120;2023-06-14T06:52:14;17.10;99.90
12911;DHT22;6523;49.758;6.120;2023-06-14T06:54:40;17.50;99.90
12911;DHT22;6523;49.758;6.120;2023-06-14T06:57:06;17.60;99.90
12911;DHT22;6523;49.758;6.120;2023-06-14T06:59:32;17.60;99.90
12911;DHT22;6523;49.758;6.120;2023-06-14T07:01:58;17.90;99.90
12911;DHT22;6523;49.758;6.120;2023-06-14T07:04:23;18.40;99.90
12911;DHT22;6523;49.758;6.120;2023-06-14T07:06:49;18.30;99.90
12911;DHT22;6523;49.758;6.120;2023-06-14T07:09:15;18.40;99.90
12911;DHT22;6523;49.758;6.120;2023-06-14T07:11:44;18.70;99.90
12911;DHT22;6523;49.758;6.120;2023-06-14T07:14:10;18.80;99.90
12911;DHT22;6523;49.758;6.120;2023-06-14T07:16:35;18.80;99.90
12911;DHT22;6523;49.758;6.120;2023-06-14T07:19:02;19.00;99.90
12911;DHT22;6523;49.758;6.120;2023-06-14T07:21:28;19.20;99.90
12911;DHT22;6523;49.758;6.120;2023-06-14T07:23:54;19.30;99.90
12911;DHT22;6523;49.758;6.120;2023-06-14T07:26:20;19.50;99.90
12911;DHT22;6523;49.758;6.120;2023-06-14T07:28:46;19.70;99.90
12911;DHT22;6523;49.758;6.120;2023-06-14T07:31:13;19.80;99.90
12911;DHT22;6523;49.758;6.120;2023-06-14T07:33:39;19.80;99.90
12911;DHT22;6523;49.758;6.120;2023-06-14T07:36:05;19.90;99.90
12911;DHT22;6523;49.758;6.120;2023-06-14T07:38:30;20.10;99.90
12911;DHT22;6523;49.758;6.120;2023-06-14T07:40:56;20.30;99.90
12911;DHT22;6523;49.758;6.120;2023-06-14T07:43:21;20.40;99.90
12911;DHT22;6523;49.758;6.120;2023-06-14T07:45:47;20.40;98.30
12911;DHT22;6523;49.758;6.120;2023-06-14T07:48:13;20.60;98.80
12911;DHT22;6523;49.758;6.120;2023-06-14T07:50:38;20.90;93.50
12911;DHT22;6523;49.758;6.120;2023-06-14T07:53:04;21.00;83.40
12911;DHT22;6523;49.758;6.120;2023-06-14T07:55:29;21.20;87.60
12911;DHT22;6523;49.758;6.120;2023-06-14T07:57:56;21.20;59.70
12911;DHT22;6523;49.758;6.120;2023-06-14T08:00:21;21.20;51.70
12911;DHT22;6523;49.758;6.120;2023-06-14T08:02:47;21.40;52.50
12911;DHT22;6523;49.758;6.120;2023-06-14T08:05:12;21.50;51.20
12911;DHT22;6523;49.758;6.120;2023-06-14T08:07:39;22.00;54.80
12911;DHT22;6523;49.758;6.120;2023-06-14T08:10:07;22.30;47.30
12911;DHT22;6523;49.758;6.120;2023-06-14T08:12:34;22.40;49.70
12911;DHT22;6523;49.758;6.120;2023-06-14T08:15:00;22.80;48.10
12911;DHT22;6523;49.758;6.120;2023-06-14T08:17:25;22.80;40.70
12911;DHT22;6523;49.758;6.120;2023-06-14T08:19:51;22.80;40.90
12911;DHT22;6523;49.758;6.120;2023-06-14T08:22:17;23.10;29.40
12911;DHT22;6523;49.758;6.120;2023-06-14T08:24:43;23.20;29.70
12911;DHT22;6523;49.758;6.120;2023-06-14T08:27:09;23.40;35.40
12911;DHT22;6523;49.758;6.120;2023-06-14T08:29:35;23.50;31.90
12911;DHT22;6523;49.758;6.120;2023-06-14T08:32:00;23.70;28.30
12911;DHT22;6523;49.758;6.120;2023-06-14T08:34:27;23.50;9.90
12911;DHT22;6523;49.758;6.120;2023-06-14T08:36:53;23.60;14.30
12911;DHT22;6523;49.758;6.120;2023-06-14T08:39:18;23.90;10.80
12911;DHT22;6523;49.758;6.120;2023-06-14T08:41:47;24.10;12.50
12911;DHT22;6523;49.758;6.120;2023-06-14T08:44:17;24.10;6.30
12911;DHT22;6523;49.758;6.120;2023-06-14T08:46:43;24.30;3.60
12911;DHT22;6523;49.758;6.120;2023-06-14T08:49:11;24.20;1.00
12911;DHT22;6523;49.758;6.120;2023-06-14T08:51:37;24.50;2.00
12911;DHT22;6523;49.758;6.120;2023-06-14T08:54:03;24.70;1.00
12911;DHT22;6523;49.758;6.120;2023-06-14T08:56:31;24.70;1.00
12911;DHT22;6523;49.758;6.120;2023-06-14T08:58:57;24.90;1.00
12911;DHT22;6523;49.758;6.120;2023-06-14T09:01:26;25.00;1.00
12911;DHT22;6523;49.758;6.120;2023-06-14T09:03:52;25.30;1.00
12911;DHT22;6523;49.758;6.120;2023-06-14T09:06:21;25.20;1.00
12911;DHT22;6523;49.758;6.120;2023-06-14T09:08:48;25.10;1.00
12911;DHT22;6523;49.758;6.120;2023-06-14T09:11:16;25.00;1.00
12911;DHT22;6523;49.758;6.120;2023-06-14T09:13:44;25.30;1.00
12911;DHT22;6523;49.758;6.120;2023-06-14T09:16:10;25.70;1.00
12911;DHT22;6523;49.758;6.120;2023-06-14T09:18:38;25.90;1.00
12911;DHT22;6523;49.758;6.120;2023-06-14T09:21:06;25.90;1.00
12911;DHT22;6523;49.758;6.120;2023-06-14T09:23:40;25.90;1.00
12911;DHT22;6523;49.758;6.120;2023-06-14T09:26:18;25.90;1.00
12911;DHT22;6523;49.758;6.120;2023-06-14T09:28:49;25.60;1.00
12911;DHT22;6523;49.758;6.120;2023-06-14T09:31:20;26.10;1.00
12911;DHT22;6523;49.758;6.120;2023-06-14T09:33:49;26.80;1.00
12911;DHT22;6523;49.758;6.120;2023-06-14T09:36:21;26.80;1.00
12911;DHT22;6523;49.758;6.120;2023-06-14T09:39:02;26.80;1.00
12911;DHT22;6523;49.758;6.120;2023-06-14T09:41:35;26.80;1.00
12911;DHT22;6523;49.758;6.120;2023-06-14T09:44:02;26.80;1.00
12911;DHT22;6523;49.758;6.120;2023-06-14T09:46:28;26.90;1.00
12911;DHT22;6523;49.758;6.120;2023-06-14T09:49:01;27.10;1.00
12911;DHT22;6523;49.758;6.120;2023-06-14T09:51:27;26.90;1.00
12911;DHT22;6523;49.758;6.120;2023-06-14T09:53:59;27.40;1.00
12911;DHT22;6523;49.758;6.120;2023-06-14T09:56:29;27.40;1.00
12911;DHT22;6523;49.758;6.120;2023-06-14T09:58:56;26.90;1.00
12911;DHT22;6523;49.758;6.120;2023-06-14T10:01:26;26.90;1.00
12911;DHT22;6523;49.758;6.120;2023-06-14T10:04:00;27.10;1.00
12911;DHT22;6523;49.758;6.120;2023-06-14T10:06:26;27.10;1.00
12911;DHT22;6523;49.758;6.120;2023-06-14T10:08:56;27.60;1.00
12911;DHT22;6523;49.758;6.120;2023-06-14T10:11:23;27.40;1.00
12911;DHT22;6523;49.758;6.120;2023-06-14T10:13:50;27.40;1.00
12911;DHT22;6523;49.758;6.120;2023-06-14T10:16:28;27.90;1.00
12911;DHT22;6523;49.758;6.120;2023-06-14T10:19:22;28.20;1.00
12911;DHT22;6523;49.758;6.120;2023-06-14T10:21:57;28.50;1.00
12911;DHT22;6523;49.758;6.120;2023-06-14T10:24:29;28.20;1.00
12911;DHT22;6523;49.758;6.120;2023-06-14T10:26:58;28.00;1.00
12911;DHT22;6523;49.758;6.120;2023-06-14T10:29:24;28.40;1.00
12911;DHT22;6523;49.758;6.120;2023-06-14T10:31:54;28.40;1.00
12911;DHT22;6523;49.758;6.120;2023-06-14T10:34:27;28.40;1.00
12911;DHT22;6523;49.758;6.120;2023-06-14T10:37:06;28.40;1.00
12911;DHT22;6523;49.758;6.120;2023-06-14T10:39:38;28.40;1.00
12911;DHT22;6523;49.758;6.120;2023-06-14T10:42:05;28.60;1.00
12911;DHT22;6523;49.758;6.120;2023-06-14T10:44:33;29.00;1.00
12911;DHT22;6523;49.758;6.120;2023-06-14T10:47:00;28.50;1.00
12911;DHT22;6523;49.758;6.120;2023-06-14T10:49:45;28.10;1.00
12911;DHT22;6523;49.758;6.120;2023-06-14T10:52:15;28.80;1.00
12911;DHT22;6523;49.758;6.120;2023-06-14T10:55:05;28.80;1.00
12911;DHT22;6523;49.758;6.120;2023-06-14T10:57:35;28.00;1.00
12911;DHT22;6523;49.758;6.120;2023-06-14T11:00:02;28.40;1.00
12911;DHT22;6523;49.758;6.120;2023-06-14T11:02:57;28.40;1.00
12911;DHT22;6523;49.758;6.120;2023-06-14T11:05:53;28.90;1.00
12911;DHT22;6523;49.758;6.120;2023-06-14T11:11:00;29.30;1.00
12911;DHT22;6523;49.758;6.120;2023-06-14T11:13:26;28.50;1.00
12911;DHT22;6523;49.758;6.120;2023-06-14T11:15:52;29.20;1.00
12911;DHT22;6523;49.758;6.120;2023-06-14T11:18:19;29.30;1.00
12911;DHT22;6523;49.758;6.120;2023-06-14T11:20:49;29.30;1.00
12911;DHT22;6523;49.758;6.120;2023-06-14T11:23:15;29.60;1.00
12911;DHT22;6523;49.758;6.120;2023-06-14T11:25:41;29.60;1.00
12911;DHT22;6523;49.758;6.120;2023-06-14T11:28:06;29.50;1.00
12911;DHT22;6523;49.758;6.120;2023-06-14T11:30:32;29.70;1.00
12911;DHT22;6523;49.758;6.120;2023-06-14T11:32:57;28.80;1.00
12911;DHT22;6523;49.758;6.120;2023-06-14T11:35:23;28.60;1.00
12911;DHT22;6523;49.758;6.120;2023-06-14T11:37:53;29.80;1.00
12911;DHT22;6523;49.758;6.120;2023-06-14T11:40:23;29.60;1.00
12911;DHT22;6523;49.758;6.120;2023-06-14T11:42:49;29.80;1.00
12911;DHT22;6523;49.758;6.120;2023-06-14T11:45:15;29.20;1.00
12911;DHT22;6523;49.758;6.120;2023-06-14T11:47:41;30.00;1.00
12911;DHT22;6523;49.758;6.120;2023-06-14T11:50:08;30.30;1.00
12911;DHT22;6523;49.758;6.120;2023-06-14T11:52:34;30.00;1.00
12911;DHT22;6523;49.758;6.120;2023-06-14T11:55:00;30.40;1.00
12911;DHT22;6523;49.758;6.120;2023-06-14T11:57:26;30.00;1.00
12911;DHT22;6523;49.758;6.120;2023-06-14T11:59:52;29.30;1.00
12911;DHT22;6523;49.758;6.120;2023-06-14T12:02:19;30.10;1.00
12911;DHT22;6523;49.758;6.120;2023-06-14T12:04:47;30.50;1.00
12911;DHT22;6523;49.758;6.120;2023-06-14T12:07:15;29.90;1.00
12911;DHT22;6523;49.758;6.120;2023-06-14T12:12:36;29.50;1.00
12911;DHT22;6523;49.758;6.120;2023-06-14T12:15:07;30.00;1.00
12911;DHT22;6523;49.758;6.120;2023-06-14T12:17:34;30.80;1.00
12911;DHT22;6523;49.758;6.120;2023-06-14T12:20:11;30.90;1.00
12911;DHT22;6523;49.758;6.120;2023-06-14T12:22:51;31.00;1.00
12911;DHT22;6523;49.758;6.120;2023-06-14T12:25:34;31.00;1.00
12911;DHT22;6523;49.758;6.120;2023-06-14T12:28:10;31.40;1.00
12911;DHT22;6523;49.758;6.120;2023-06-14T12:30:36;30.80;1.00
12911;DHT22;6523;49.758;6.120;2023-06-14T12:33:03;29.30;1.00
12911;DHT22;6523;49.758;6.120;2023-06-14T12:35:29;30.40;1.00
12911;DHT22;6523;49.758;6.120;2023-06-14T12:37:54;30.70;1.00
12911;DHT22;6523;49.758;6.120;2023-06-14T12:40:21;30.60;1.00
12911;DHT22;6523;49.758;6.120;2023-06-14T12:42:47;30.30;1.00
12911;DHT22;6523;49.758;6.120;2023-06-14T12:45:13;30.70;1.00
12911;DHT22;6523;49.758;6.120;2023-06-14T12:47:38;30.50;1.00
12911;DHT22;6523;49.758;6.120;2023-06-14T12:50:05;31.20;1.00
12911;DHT22;6523;49.758;6.120;2023-06-14T12:52:31;29.20;1.00
12911;DHT22;6523;49.758;6.120;2023-06-14T12:54:56;29.10;1.00
12911;DHT22;6523;49.758;6.120;2023-06-14T12:57:22;29.80;1.00
12911;DHT22;6523;49.758;6.120;2023-06-14T12:59:48;30.30;1.00
12911;DHT22;6523;49.758;6.120;2023-06-14T13:02:15;31.00;1.00
12911;DHT22;6523;49.758;6.120;2023-06-14T13:04:41;31.40;1.00
12911;DHT22;6523;49.758;6.120;2023-06-14T13:07:06;30.50;1.00
12911;DHT22;6523;49.758;6.120;2023-06-14T13:09:32;30.80;1.00
12911;DHT22;6523;49.758;6.120;2023-06-14T13:11:57;30.80;1.00
12911;DHT22;6523;49.758;6.120;2023-06-14T13:14:23;30.90;1.00
12911;DHT22;6523;49.758;6.120;2023-06-14T13:16:48;31.60;1.00
12911;DHT22;6523;49.758;6.120;2023-06-14T13:19:14;31.20;1.00
12911;DHT22;6523;49.758;6.120;2023-06-14T13:21:39;31.60;1.00
12911;DHT22;6523;49.758;6.120;2023-06-14T13:24:05;31.20;1.00
12911;DHT22;6523;49.758;6.120;2023-06-14T13:26:32;31.10;1.00
12911;DHT22;6523;49.758;6.120;2023-06-14T13:28:57;31.50;1.00
12911;DHT22;6523;49.758;6.120;2023-06-14T13:31:23;31.40;1.00
12911;DHT22;6523;49.758;6.120;2023-06-14T13:33:48;31.50;1.00
12911;DHT22;6523;49.758;6.120;2023-06-14T13:36:14;31.50;1.00
12911;DHT22;6523;49.758;6.120;2023-06-14T13:38:39;31.30;1.00
12911;DHT22;6523;49.758;6.120;2023-06-14T13:41:05;31.40;1.00
12911;DHT22;6523;49.758;6.120;2023-06-14T13:43:30;31.20;1.00
12911;DHT22;6523;49.758;6.120;2023-06-14T13:45:56;31.80;1.00
12911;DHT22;6523;49.758;6.120;2023-06-14T13:48:21;31.70;1.00
12911;DHT22;6523;49.758;6.120;2023-06-14T13:50:47;30.70;1.00
12911;DHT22;6523;49.758;6.120;2023-06-14T13:53:13;30.40;1.00
12911;DHT22;6523;49.758;6.120;2023-06-14T13:55:39;30.70;1.00
12911;DHT22;6523;49.758;6.120;2023-06-14T13:58:05;31.30;1.00
12911;DHT22;6523;49.758;6.120;2023-06-14T14:00:30;31.00;1.00
12911;DHT22;6523;49.758;6.120;2023-06-14T14:02:56;30.80;1.00
12911;DHT22;6523;49.758;6.120;2023-06-14T14:05:22;30.70;1.00
12911;DHT22;6523;49.758;6.120;2023-06-14T14:07:53;31.00;1.00
12911;DHT22;6523;49.758;6.120;2023-06-14T14:10:20;31.00;1.00
12911;DHT22;6523;49.758;6.120;2023-06-14T14:12:45;30.90;1.00
12911;DHT22;6523;49.758;6.120;2023-06-14T14:15:11;28.90;1.00
12911;DHT22;6523;49.758;6.120;2023-06-14T14:17:40;27.50;1.00
12911;DHT22;6523;49.758;6.120;2023-06-14T14:20:06;28.10;1.00
12911;DHT22;6523;49.758;6.120;2023-06-14T14:22:32;29.40;1.00
12911;DHT22;6523;49.758;6.120;2023-06-14T14:24:57;30.10;1.00
12911;DHT22;6523;49.758;6.120;2023-06-14T14:27:23;30.70;1.00
12911;DHT22;6523;49.758;6.120;2023-06-14T14:29:49;30.70;1.00
12911;DHT22;6523;49.758;6.120;2023-06-14T14:32:14;30.70;1.00
12911;DHT22;6523;49.758;6.120;2023-06-14T14:34:40;30.10;1.00
12911;DHT22;6523;49.758;6.120;2023-06-14T14:37:06;30.40;1.00
12911;DHT22;6523;49.758;6.120;2023-06-14T14:39:31;31.00;1.00
12911;DHT22;6523;49.758;6.120;2023-06-14T14:41:57;31.10;1.00
12911;DHT22;6523;49.758;6.120;2023-06-14T14:44:23;31.00;1.00
12911;DHT22;6523;49.758;6.120;2023-06-14T14:46:48;30.40;1.00
12911;DHT22;6523;49.758;6.120;2023-06-14T14:49:14;31.00;1.00
12911;DHT22;6523;49.758;6.120;2023-06-14T14:51:39;31.30;1.00
12911;DHT22;6523;49.758;6.120;2023-06-14T14:54:05;31.10;1.00
12911;DHT22;6523;49.758;6.120;2023-06-14T14:56:31;30.80;1.00
12911;DHT22;6523;49.758;6.120;2023-06-14T14:58:57;31.00;1.00
12911;DHT22;6523;49.758;6.120;2023-06-14T15:01:23;30.50;1.00
12911;DHT22;6523;49.758;6.120;2023-06-14T15:03:48;31.00;1.00
12911;DHT22;6523;49.758;6.120;2023-06-14T15:06:14;31.10;1.00
12911;DHT22;6523;49.758;6.120;2023-06-14T15:08:40;31.20;1.00
12911;DHT22;6523;49.758;6.120;2023-06-14T15:11:05;31.10;1.00
12911;DHT22;6523;49.758;6.120;2023-06-14T15:13:32;31.00;1.00
12911;DHT22;6523;49.758;6.120;2023-06-14T15:15:57;30.30;1.00
12911;DHT22;6523;49.758;6.120;2023-06-14T15:18:23;30.70;1.00
12911;DHT22;6523;49.758;6.120;2023-06-14T15:20:49;30.50;1.00
12911;DHT22;6523;49.758;6.120;2023-06-14T15:23:15;30.50;1.00
12911;DHT22;6523;49.758;6.120;2023-06-14T15:25:45;30.90;1.00
12911;DHT22;6523;49.758;6.120;2023-06-14T15:28:12;30.70;1.00
12911;DHT22;6523;49.758;6.120;2023-06-14T15:30:37;29.90;1.00
12911;DHT22;6523;49.758;6.120;2023-06-14T15:33:03;29.50;1.00
12911;DHT22;6523;49.758;6.120;2023-06-14T15:35:28;29.70;1.00
12911;DHT22;6523;49.758;6.120;2023-06-14T15:37:54;30.10;1.00
12911;DHT22;6523;49.758;6.120;2023-06-14T15:40:20;30.20;1.00
12911;DHT22;6523;49.758;6.120;2023-06-14T15:42:45;30.10;1.00
12911;DHT22;6523;49.758;6.120;2023-06-14T15:45:11;30.00;1.00
12911;DHT22;6523;49.758;6.120;2023-06-14T15:47:37;30.10;1.00
12911;DHT22;6523;49.758;6.120;2023-06-14T15:50:03;30.20;1.00
12911;DHT22;6523;49.758;6.120;2023-06-14T15:52:30;30.10;1.00
12911;DHT22;6523;49.758;6.120;2023-06-14T15:54:56;30.30;1.00
12911;DHT22;6523;49.758;6.120;2023-06-14T15:57:21;30.10;1.00
12911;DHT22;6523;49.758;6.120;2023-06-14T15:59:47;30.00;1.00
12911;DHT22;6523;49.758;6.120;2023-06-14T16:02:12;29.80;1.00